Laramie, WY (82070)

6:34 AM MST on February 06, 2016 (GMT -0700)
North Laramie | | Change Station
CLOSE
Current Station
Personal Weather Station
Location: Laramie, WY
Elevation: 7221 ft
Nearby Weather Stations

Elev 7221 ft 41.33 °N, 105.57 °W | Updated 8 minutes ago

Partly Cloudy
Partly Cloudy
19.9 °F
Feels Like 15 °F
N
3.7
Wind Variable Wind from ESE

Today
High -- | Low -- °F
--% Chance of Precip.
Yesterday
High -- | Low -- °F
Precip. -- in
Pressure 30.38 in
Visibility 10.0 miles
Clouds Clear
Windchill 15 °F
Dew Point 10 °F
Humidity 65%
Rainfall 0.00 in
Snow Depth Not available.
7:09 AM 5:25 PM
Waning Crescent, 5% visible
METAR KLAR 061253Z AUTO 22017G26KT 10SM CLR M07/M13 A3023 RMK AO2 PK WND 22030/1215 SLP285 T10721128
Pressure 30.38 in
Visibility 10.0 miles
Clouds Clear
Windchill 15 °F
Dew Point 10 °F
Humidity 65%
Rainfall 0.00 in
Snow Depth Not available.
7:09 AM 5:25 PM
Waning Crescent, 5% visible
METAR KLAR 061253Z AUTO 22017G26KT 10SM CLR M07/M13 A3023 RMK AO2 PK WND 22030/1215 SLP285 T10721128

10-Day Weather Forecast

Almanac

Astronomy

Feb. 06, 2016 Rise Set
Actual Time
Civil Twilight
Nautical Twilight
Astronomical Twilight
Moon
Length of Visible Light
Length of Day
Tomorrow will be .
, % of the Moon is Illuminated

Today's Extremes

State Highs State Lows

Community

WunderPhotos

Upload Photos

1,890,971 photos uploaded!

WunderBlog® & News

Nearby

Air Quality

  Air Quality AQ Index Pollutant
Not available.

Snow Depth

Station Depth Elevation

Earthquake Activity

City Distance Mag. Time & Date
Minimum magnitude displayed is 2.5.

Coastal Water Temperatures

Place Temperature

Stations

Nearby Weather Stations

Station Location Temp. Windchill Dew Point Humidity Wind Precip. Elev Updated Type
                   

Watches & Warnings

There are currently no watches in effect.